createdAt,value
2018-11-22T00:01:02.468Z,4.00
2018-11-22T00:03:29.498Z,4.10
2018-11-22T00:05:56.544Z,4.10
2018-11-22T00:08:23.594Z,4.10
2018-11-22T00:10:50.640Z,4.10
2018-11-22T00:13:17.687Z,4.00
2018-11-22T00:15:44.743Z,4.00
2018-11-22T00:18:11.744Z,4.00
2018-11-22T00:20:38.784Z,4.10
2018-11-22T00:23:05.803Z,4.00
2018-11-22T12:17:48.165Z,5.80
2018-11-22T12:20:16.362Z,5.80
2018-11-22T12:22:45.073Z,5.70
2018-11-22T12:25:13.644Z,5.80
2018-11-22T12:27:42.772Z,5.80
2018-11-22T12:30:13.712Z,5.80
2018-11-22T12:32:46.809Z,5.90
2018-11-22T12:35:19.923Z,5.90
2018-11-22T12:37:53.073Z,5.90
2018-11-22T12:40:20.516Z,5.90
2018-11-22T12:42:48.049Z,5.90
2018-11-22T12:45:15.504Z,6.10
2018-11-22T12:47:42.976Z,6.00
2018-11-22T12:50:10.621Z,6.00
2018-11-22T12:52:38.096Z,6.10
2018-11-22T12:55:07.027Z,6.00
2018-11-22T12:57:34.476Z,5.90
2018-11-22T13:00:01.948Z,6.00
2018-11-22T13:02:29.396Z,6.00
2018-11-22T13:04:56.844Z,6.10
2018-11-22T13:07:24.282Z,6.10
2018-11-22T13:09:51.732Z,6.20
2018-11-22T13:12:19.185Z,6.30
2018-11-22T13:14:46.577Z,6.30
2018-11-22T13:17:14.046Z,6.50
2018-11-22T13:19:41.488Z,6.70
2018-11-22T13:22:09.259Z,6.70
2018-11-22T13:24:36.704Z,6.80
2018-11-22T13:27:04.145Z,6.80
2018-11-22T13:29:31.581Z,6.70
2018-11-22T13:31:59.136Z,6.50
2018-11-22T13:34:26.574Z,6.50
2018-11-22T13:36:54.012Z,6.40
2018-11-22T13:39:21.440Z,6.40
2018-11-22T13:41:49.027Z,6.60
2018-11-22T13:44:16.724Z,6.60
2018-11-22T13:46:44.141Z,6.50
2018-11-22T13:49:11.603Z,6.30
2018-11-22T13:51:39.306Z,6.30
2018-11-22T13:54:06.741Z,6.30
2018-11-22T13:56:34.181Z,6.10
2018-11-22T13:59:01.608Z,6.00
2018-11-22T14:01:29.318Z,5.90
2018-11-22T14:03:56.784Z,5.80
2018-11-22T14:06:24.340Z,5.80
2018-11-22T14:08:51.771Z,5.70
2018-11-22T14:11:19.194Z,5.70
2018-11-22T14:13:46.660Z,5.60
2018-11-22T14:16:14.088Z,5.60
2018-11-22T14:18:41.533Z,5.50
2018-11-22T14:21:08.967Z,5.40
2018-11-22T14:23:36.376Z,5.30
2018-11-22T14:26:03.942Z,5.30
2018-11-22T14:28:34.297Z,5.10
2018-11-22T14:31:02.694Z,5.20
2018-11-22T14:33:32.808Z,5.00
2018-11-22T14:36:00.313Z,5.10
2018-11-22T14:38:28.335Z,5.00
2018-11-22T14:40:55.808Z,5.00
2018-11-22T14:43:23.316Z,4.90
2018-11-22T14:45:50.813Z,4.90
2018-11-22T14:48:18.263Z,4.90
2018-11-22T14:50:56.128Z,4.80
2018-11-22T14:53:23.593Z,4.70
2018-11-22T14:55:51.032Z,4.70
2018-11-22T14:58:18.464Z,4.70
2018-11-22T15:00:45.967Z,4.60
2018-11-22T15:03:13.468Z,4.60
2018-11-22T15:05:40.972Z,4.60
2018-11-22T15:08:08.504Z,4.50
2018-11-22T15:10:36.013Z,4.50
2018-11-22T15:13:03.596Z,4.40
2018-11-22T15:15:31.140Z,4.40
2018-11-22T15:17:58.605Z,4.30
2018-11-22T15:20:26.080Z,4.30
2018-11-22T15:22:54.032Z,4.30
2018-11-22T15:25:23.718Z,4.20
2018-11-22T15:27:51.144Z,4.10
2018-11-22T15:30:21.083Z,4.10
2018-11-22T15:32:48.556Z,4.00
2018-11-22T15:35:17.330Z,4.00
2018-11-22T15:37:45.229Z,3.90
2018-11-22T15:40:18.110Z,3.80
2018-11-22T15:42:46.936Z,3.70
2018-11-22T15:45:15.781Z,3.80
2018-11-22T15:47:43.721Z,3.70
2018-11-22T15:50:13.570Z,3.70
2018-11-22T15:52:41.297Z,3.40
2018-11-22T15:55:09.265Z,3.50
2018-11-22T15:57:37.417Z,3.40
2018-11-22T16:00:09.253Z,3.40
2018-11-22T16:02:36.708Z,3.40
2018-11-22T16:05:05.337Z,3.30
2018-11-22T16:07:32.776Z,3.40
2018-11-22T16:10:00.288Z,3.30
2018-11-22T16:12:27.778Z,3.30
2018-11-22T16:14:55.238Z,3.20
2018-11-22T16:17:22.767Z,3.30
2018-11-22T16:19:50.224Z,3.20
2018-11-22T16:22:17.805Z,3.20
2018-11-22T16:24:45.290Z,3.20
2018-11-22T16:27:12.798Z,3.10
2018-11-22T16:29:40.237Z,3.10
2018-11-22T16:32:08.502Z,3.10
2018-11-22T16:34:35.996Z,3.10
2018-11-22T16:37:03.449Z,3.10
2018-11-22T16:39:31.712Z,3.10
2018-11-22T16:41:59.176Z,3.00
2018-11-22T16:44:26.660Z,3.00
2018-11-22T16:46:54.108Z,3.00
2018-11-22T16:49:21.576Z,3.00
2018-11-22T16:51:49.050Z,2.90
2018-11-22T16:54:16.456Z,3.00
2018-11-22T16:56:44.665Z,2.90
2018-11-22T16:59:12.089Z,2.90
2018-11-22T17:01:39.698Z,2.90
2018-11-22T17:04:07.188Z,2.90
2018-11-22T17:06:35.171Z,2.80
2018-11-22T17:09:04.357Z,2.90
2018-11-22T17:11:33.390Z,2.80
2018-11-22T17:14:00.412Z,2.80
2018-11-22T17:16:28.917Z,2.80
2018-11-22T17:18:56.416Z,2.80
2018-11-22T17:21:24.693Z,2.80
2018-11-22T17:23:52.382Z,2.70
2018-11-22T17:26:19.848Z,2.70
2018-11-22T17:28:47.280Z,2.80
2018-11-22T17:31:15.644Z,2.70
2018-11-22T17:33:43.088Z,2.70
2018-11-22T17:36:10.612Z,2.60
2018-11-22T17:38:38.036Z,2.70
2018-11-22T17:41:05.933Z,2.60
2018-11-22T17:43:33.364Z,2.60
2018-11-22T17:46:00.815Z,2.60
2018-11-22T17:48:28.669Z,2.60
2018-11-22T17:50:56.161Z,2.50
2018-11-22T17:53:23.879Z,2.50
2018-11-22T17:55:51.267Z,2.50
2018-11-22T17:58:18.864Z,2.50
2018-11-22T18:00:49.765Z,2.40
2018-11-22T18:03:17.224Z,2.50
2018-11-22T18:05:44.688Z,2.30
2018-11-22T18:08:12.140Z,2.40
2018-11-22T18:10:40.393Z,2.40
2018-11-22T18:13:07.864Z,2.40
2018-11-22T18:16:11.475Z,2.40
2018-11-22T18:18:38.931Z,2.30
2018-11-22T18:21:06.831Z,2.30
2018-11-22T18:23:34.316Z,2.30
2018-11-22T18:26:01.754Z,2.30
2018-11-22T18:28:29.228Z,2.20
2018-11-22T18:30:56.673Z,2.30
2018-11-22T18:33:24.116Z,2.10
2018-11-22T18:35:51.661Z,2.10
2018-11-22T18:38:19.084Z,2.20
2018-11-22T18:40:46.513Z,2.10
2018-11-22T18:43:13.951Z,2.20
2018-11-22T18:45:42.836Z,2.20
2018-11-22T18:48:11.849Z,2.20
2018-11-22T18:50:39.721Z,2.20
2018-11-22T18:53:07.387Z,2.20
2018-11-22T18:55:34.824Z,2.10
2018-11-22T18:58:02.264Z,2.20
2018-11-22T19:00:31.768Z,2.20
2018-11-22T19:03:00.701Z,2.10
2018-11-22T19:05:28.140Z,2.10
2018-11-22T19:07:56.320Z,2.20
2018-11-22T19:10:27.929Z,2.10
2018-11-22T19:12:56.799Z,2.10
2018-11-22T19:15:26.304Z,2.10
2018-11-22T19:17:53.992Z,2.10
2018-11-22T19:20:24.744Z,2.10
2018-11-22T19:22:52.723Z,2.00
2018-11-22T19:25:20.813Z,2.10
2018-11-22T19:27:49.421Z,2.10
2018-11-22T19:30:37.352Z,2.10
2018-11-22T19:33:02.675Z,2.00
2018-11-22T19:35:31.489Z,2.00
2018-11-22T19:37:59.084Z,2.00
2018-11-22T19:40:28.711Z,2.00
2018-11-22T19:42:57.495Z,1.90
2018-11-22T19:45:26.649Z,2.00
2018-11-22T19:47:54.177Z,1.90
2018-11-22T19:50:23.060Z,2.00
2018-11-22T19:52:51.250Z,2.00
2018-11-22T19:55:21.321Z,1.90
2018-11-22T19:57:50.480Z,1.90
2018-11-22T20:00:18.772Z,1.90
2018-11-22T20:02:46.664Z,1.90
2018-11-22T20:05:15.279Z,1.80
2018-11-22T20:07:43.752Z,1.90
2018-11-22T20:10:15.092Z,1.80
2018-11-22T20:12:42.796Z,1.80
2018-11-22T20:15:10.403Z,1.90
2018-11-22T20:17:37.833Z,1.70
2018-11-22T20:20:06.776Z,1.80
2018-11-22T20:22:34.211Z,1.80
2018-11-22T20:25:01.663Z,1.80
2018-11-22T20:27:29.148Z,1.80
2018-11-22T20:29:56.566Z,1.70
2018-11-22T20:32:24.416Z,1.80
2018-11-22T20:34:51.879Z,1.80
2018-11-22T20:37:19.337Z,1.80
2018-11-22T20:39:46.812Z,1.70
2018-11-22T20:42:14.245Z,1.80
2018-11-22T20:44:42.409Z,1.70
2018-11-22T20:47:09.893Z,1.60
2018-11-22T20:49:37.331Z,1.70
2018-11-22T20:52:04.900Z,1.50
2018-11-22T20:54:32.349Z,1.60
2018-11-22T20:56:59.807Z,1.70
2018-11-22T20:59:27.224Z,1.60
2018-11-22T21:01:54.769Z,1.70
2018-11-22T21:04:22.190Z,1.40
2018-11-22T21:06:49.641Z,1.60
2018-11-22T21:09:17.108Z,1.50
2018-11-22T21:11:44.556Z,1.50
2018-11-22T21:14:11.960Z,1.60
2018-11-22T21:16:39.441Z,1.50
2018-11-22T21:19:06.976Z,1.50
2018-11-22T21:21:34.527Z,1.50
2018-11-22T21:24:02.095Z,1.40
2018-11-22T21:26:29.570Z,1.60
2018-11-22T21:28:57.020Z,1.40
2018-11-22T21:31:24.472Z,1.40
2018-11-22T21:33:51.964Z,1.40
2018-11-22T21:36:19.414Z,1.40
2018-11-22T21:38:46.941Z,1.50
2018-11-22T21:41:14.371Z,1.40
2018-11-22T21:43:41.799Z,1.30
2018-11-22T21:46:09.238Z,1.40
2018-11-22T21:48:36.647Z,1.40
2018-11-22T21:51:04.440Z,1.40
2018-11-22T21:53:31.870Z,1.40
2018-11-22T21:55:59.330Z,1.40
2018-11-22T21:58:26.748Z,1.30
2018-11-22T22:00:54.172Z,1.30
2018-11-22T22:03:21.601Z,1.40
2018-11-22T22:05:49.040Z,1.40
2018-11-22T22:08:16.453Z,1.30
2018-11-22T22:10:43.936Z,1.40
2018-11-22T22:13:11.576Z,1.20
2018-11-22T22:15:39.082Z,1.20
2018-11-22T22:18:07.757Z,1.30
2018-11-22T22:20:35.892Z,1.30
2018-11-22T22:23:03.512Z,1.30
2018-11-22T22:25:31.327Z,1.30
2018-11-22T22:27:59.969Z,1.30
2018-11-22T22:30:29.869Z,1.20
2018-11-22T22:32:58.773Z,1.20
2018-11-22T22:35:26.271Z,1.30
2018-11-22T22:37:54.229Z,1.20
2018-11-22T22:40:26.024Z,1.20
2018-11-22T22:42:54.688Z,1.40
2018-11-22T22:45:24.955Z,1.20
2018-11-22T22:47:52.928Z,1.00
2018-11-22T22:50:21.877Z,1.20
2018-11-22T22:52:50.816Z,1.10
2018-11-22T22:55:18.289Z,1.10
2018-11-22T22:57:45.740Z,1.20
2018-11-22T23:00:21.332Z,1.10
2018-11-22T23:02:51.625Z,1.10
2018-11-22T23:05:19.642Z,1.10
2018-11-22T23:07:47.140Z,1.10
2018-11-22T23:10:17.754Z,1.10
2018-11-22T23:12:45.214Z,1.20
2018-11-22T23:15:13.716Z,1.10
2018-11-22T23:17:41.524Z,1.20
2018-11-22T23:20:12.167Z,1.20
2018-11-22T23:22:40.077Z,1.10
2018-11-22T23:25:08.032Z,1.10
2018-11-22T23:27:35.588Z,1.20
2018-11-22T23:30:03.938Z,1.30
2018-11-22T23:32:31.392Z,1.10
2018-11-22T23:34:58.828Z,1.10
2018-11-22T23:37:26.265Z,1.10
2018-11-22T23:39:53.697Z,1.10
2018-11-22T23:42:21.161Z,1.10
2018-11-22T23:44:48.592Z,1.00
2018-11-22T23:47:16.044Z,1.10
2018-11-22T23:49:43.476Z,1.00
2018-11-22T23:52:10.958Z,1.10
2018-11-22T23:54:38.417Z,1.00
2018-11-22T23:57:05.837Z,1.20
2018-11-22T23:59:33.288Z,1.10
